sensor_id;sensor_type;location;lat;lon;timestamp;pressure;altitude;pressure_sealevel;temperature;humidity
34658;BME280;20865;43.312;27.152;2023-01-29T00:01:57;100733.25;;;9.51;42.17
34658;BME280;20865;43.312;27.152;2023-01-29T00:04:24;100725.05;;;9.62;42.28
34658;BME280;20865;43.312;27.152;2023-01-29T00:06:52;100730.38;;;9.62;42.20
34658;BME280;20865;43.312;27.152;2023-01-29T00:09:20;100736.58;;;9.64;42.24
34658;BME280;20865;43.312;27.152;2023-01-29T00:11:47;100731.59;;;9.69;41.87
34658;BME280;20865;43.312;27.152;2023-01-29T00:14:15;100734.89;;;9.58;41.96
34658;BME280;20865;43.312;27.152;2023-01-29T00:16:42;100739.86;;;9.56;41.91
34658;BME280;20865;43.312;27.152;2023-01-29T00:19:10;100743.45;;;9.53;41.66
34658;BME280;20865;43.312;27.152;2023-01-29T00:21:39;100740.16;;;9.63;41.61
34658;BME280;20865;43.312;27.152;2023-01-29T00:24:07;100737.97;;;9.61;41.66
34658;BME280;20865;43.312;27.152;2023-01-29T00:26:34;100745.91;;;9.64;41.66
34658;BME280;20865;43.312;27.152;2023-01-29T00:29:05;100745.50;;;9.63;41.53
34658;BME280;20865;43.312;27.152;2023-01-29T00:31:32;100740.43;;;9.47;41.58
34658;BME280;20865;43.312;27.152;2023-01-29T00:34:00;100742.89;;;9.34;41.65
34658;BME280;20865;43.312;27.152;2023-01-29T00:36:28;100748.48;;;9.44;41.81
34658;BME280;20865;43.312;27.152;2023-01-29T00:38:57;100748.53;;;9.43;41.60
34658;BME280;20865;43.312;27.152;2023-01-29T00:41:27;100747.05;;;9.50;41.59
34658;BME280;20865;43.312;27.152;2023-01-29T00:44:13;100753.61;;;9.57;41.43
34658;BME280;20865;43.312;27.152;2023-01-29T00:47:00;100745.19;;;9.56;41.46
34658;BME280;20865;43.312;27.152;2023-01-29T00:49:28;100749.11;;;9.59;41.46
34658;BME280;20865;43.312;27.152;2023-01-29T00:51:55;100744.11;;;9.66;41.47
34658;BME280;20865;43.312;27.152;2023-01-29T00:54:41;100743.19;;;9.67;41.25
34658;BME280;20865;43.312;27.152;2023-01-29T00:57:09;100751.20;;;9.67;41.12
34658;BME280;20865;43.312;27.152;2023-01-29T00:59:36;100747.97;;;9.72;41.50
34658;BME280;20865;43.312;27.152;2023-01-29T01:02:04;100747.46;;;9.51;41.10
34658;BME280;20865;43.312;27.152;2023-01-29T01:04:49;100745.91;;;9.64;41.06
34658;BME280;20865;43.312;27.152;2023-01-29T01:07:17;100754.95;;;9.57;41.31
34658;BME280;20865;43.312;27.152;2023-01-29T01:09:45;100755.30;;;9.61;41.49
34658;BME280;20865;43.312;27.152;2023-01-29T01:12:31;100747.97;;;9.49;41.57
34658;BME280;20865;43.312;27.152;2023-01-29T01:14:59;100746.06;;;9.56;41.49
34658;BME280;20865;43.312;27.152;2023-01-29T01:17:27;100763.73;;;9.62;41.46
34658;BME280;20865;43.312;27.152;2023-01-29T01:19:54;100754.64;;;9.48;41.82
34658;BME280;20865;43.312;27.152;2023-01-29T01:22:22;100757.30;;;9.49;41.70
34658;BME280;20865;43.312;27.152;2023-01-29T01:24:49;100761.61;;;9.57;41.97
34658;BME280;20865;43.312;27.152;2023-01-29T01:27:17;100766.54;;;9.54;42.15
34658;BME280;20865;43.312;27.152;2023-01-29T01:29:45;100759.77;;;9.60;41.93
34658;BME280;20865;43.312;27.152;2023-01-29T01:32:13;100757.92;;;9.64;42.21
34658;BME280;20865;43.312;27.152;2023-01-29T01:34:41;100755.72;;;9.62;42.15
34658;BME280;20865;43.312;27.152;2023-01-29T01:37:10;100755.60;;;9.69;42.08
34658;BME280;20865;43.312;27.152;2023-01-29T01:39:38;100758.70;;;9.69;42.13
34658;BME280;20865;43.312;27.152;2023-01-29T01:42:15;100760.48;;;9.70;42.28
34658;BME280;20865;43.312;27.152;2023-01-29T01:44:54;100759.20;;;9.67;42.35
34658;BME280;20865;43.312;27.152;2023-01-29T01:47:32;100758.64;;;9.72;42.17
34658;BME280;20865;43.312;27.152;2023-01-29T01:49:58;100772.08;;;9.67;42.55
34658;BME280;20865;43.312;27.152;2023-01-29T01:52:28;100759.66;;;9.66;42.60
34658;BME280;20865;43.312;27.152;2023-01-29T01:54:58;100758.39;;;9.62;42.88
34658;BME280;20865;43.312;27.152;2023-01-29T01:57:27;100760.09;;;9.16;43.39
34658;BME280;20865;43.312;27.152;2023-01-29T01:59:58;100758.58;;;9.52;42.69
34658;BME280;20865;43.312;27.152;2023-01-29T02:02:26;100766.84;;;9.63;42.24
34658;BME280;20865;43.312;27.152;2023-01-29T02:05:13;100766.19;;;9.72;42.15
34658;BME280;20865;43.312;27.152;2023-01-29T02:07:59;100768.17;;;9.63;42.28
34658;BME280;20865;43.312;27.152;2023-01-29T02:10:46;100773.00;;;9.66;42.23
34658;BME280;20865;43.312;27.152;2023-01-29T02:13:15;100774.70;;;9.69;42.64
34658;BME280;20865;43.312;27.152;2023-01-29T02:15:45;100772.48;;;9.70;42.85
34658;BME280;20865;43.312;27.152;2023-01-29T02:18:19;100782.19;;;9.74;42.76
34658;BME280;20865;43.312;27.152;2023-01-29T02:29:06;100767.97;;;9.73;42.28
34658;BME280;20865;43.312;27.152;2023-01-29T02:32:02;100762.23;;;9.71;42.18
34658;BME280;20865;43.312;27.152;2023-01-29T02:34:45;100766.69;;;9.70;42.44
34658;BME280;20865;43.312;27.152;2023-01-29T02:37:35;100769.52;;;9.63;42.42
34658;BME280;20865;43.312;27.152;2023-01-29T02:40:07;100772.59;;;9.64;42.70
34658;BME280;20865;43.312;27.152;2023-01-29T02:42:56;100775.61;;;9.69;42.83
34658;BME280;20865;43.312;27.152;2023-01-29T02:45:21;100785.37;;;9.70;43.01
34658;BME280;20865;43.312;27.152;2023-01-29T02:47:54;100780.86;;;9.72;42.67
34658;BME280;20865;43.312;27.152;2023-01-29T02:50:20;100781.77;;;9.73;43.04
34658;BME280;20865;43.312;27.152;2023-01-29T02:55:35;100781.27;;;9.75;42.70
34658;BME280;20865;43.312;27.152;2023-01-29T02:58:16;100780.91;;;9.71;42.52
34658;BME280;20865;43.312;27.152;2023-01-29T03:00:40;100779.92;;;9.76;42.57
34658;BME280;20865;43.312;27.152;2023-01-29T03:03:21;100784.18;;;9.63;42.21
34658;BME280;20865;43.312;27.152;2023-01-29T03:06:10;100780.04;;;9.69;42.47
34658;BME280;20865;43.312;27.152;2023-01-29T03:08:41;100782.34;;;9.66;42.33
34658;BME280;20865;43.312;27.152;2023-01-29T03:11:12;100783.62;;;9.69;42.48
34658;BME280;20865;43.312;27.152;2023-01-29T03:16:35;100792.23;;;9.60;43.08
34658;BME280;20865;43.312;27.152;2023-01-29T03:19:07;100788.05;;;9.69;42.98
34658;BME280;20865;43.312;27.152;2023-01-29T03:21:37;100787.78;;;9.59;43.30
34658;BME280;20865;43.312;27.152;2023-01-29T03:24:33;100794.97;;;9.55;43.10
34658;BME280;20865;43.312;27.152;2023-01-29T03:27:19;100791.83;;;9.57;43.22
34658;BME280;20865;43.312;27.152;2023-01-29T03:30:07;100794.45;;;9.59;43.44
34658;BME280;20865;43.312;27.152;2023-01-29T03:32:55;100796.75;;;9.56;43.50
34658;BME280;20865;43.312;27.152;2023-01-29T03:35:25;100802.09;;;9.56;43.50
34658;BME280;20865;43.312;27.152;2023-01-29T03:38:10;100797.26;;;9.52;43.41
34658;BME280;20865;43.312;27.152;2023-01-29T03:40:40;100799.11;;;9.73;43.42
34658;BME280;20865;43.312;27.152;2023-01-29T03:43:23;100787.52;;;9.50;43.89
34658;BME280;20865;43.312;27.152;2023-01-29T03:48:51;100800.12;;;9.42;43.92
34658;BME280;20865;43.312;27.152;2023-01-29T03:52:10;100789.36;;;9.46;43.94
34658;BME280;20865;43.312;27.152;2023-01-29T03:54:02;100799.11;;;9.47;43.78
34658;BME280;20865;43.312;27.152;2023-01-29T04:02:04;100801.31;;;9.49;43.95
34658;BME280;20865;43.312;27.152;2023-01-29T04:04:33;100793.72;;;9.52;43.95
34658;BME280;20865;43.312;27.152;2023-01-29T04:07:13;100797.67;;;9.53;43.68
34658;BME280;20865;43.312;27.152;2023-01-29T04:09:45;100796.38;;;9.52;43.30
34658;BME280;20865;43.312;27.152;2023-01-29T04:12:14;100801.00;;;9.41;43.44
34658;BME280;20865;43.312;27.152;2023-01-29T04:14:42;100804.77;;;9.54;43.44
34658;BME280;20865;43.312;27.152;2023-01-29T04:17:20;100806.08;;;9.56;43.46
34658;BME280;20865;43.312;27.152;2023-01-29T04:19:45;100813.83;;;9.44;43.52
34658;BME280;20865;43.312;27.152;2023-01-29T04:22:19;100822.59;;;9.52;43.47
34658;BME280;20865;43.312;27.152;2023-01-29T04:24:47;100812.77;;;9.54;43.87
34658;BME280;20865;43.312;27.152;2023-01-29T04:27:26;100806.50;;;9.57;43.58
34658;BME280;20865;43.312;27.152;2023-01-29T04:35:01;100812.20;;;9.63;43.60
34658;BME280;20865;43.312;27.152;2023-01-29T04:43:21;100810.30;;;9.69;43.32
34658;BME280;20865;43.312;27.152;2023-01-29T04:48:25;100819.48;;;9.77;43.55
34658;BME280;20865;43.312;27.152;2023-01-29T04:51:06;100816.31;;;9.79;43.56
34658;BME280;20865;43.312;27.152;2023-01-29T04:53:43;100811.59;;;9.71;43.79
34658;BME280;20865;43.312;27.152;2023-01-29T04:56:56;100812.00;;;9.72;43.96
34658;BME280;20865;43.312;27.152;2023-01-29T04:59:06;100815.12;;;9.71;43.98
34658;BME280;20865;43.312;27.152;2023-01-29T05:01:19;100823.74;;;9.63;44.06
34658;BME280;20865;43.312;27.152;2023-01-29T05:03:51;100822.36;;;9.65;43.98
34658;BME280;20865;43.312;27.152;2023-01-29T05:06:20;100820.11;;;9.67;43.98
34658;BME280;20865;43.312;27.152;2023-01-29T05:08:50;100818.03;;;9.59;44.09
34658;BME280;20865;43.312;27.152;2023-01-29T05:11:19;100826.55;;;9.56;44.40
34658;BME280;20865;43.312;27.152;2023-01-29T05:13:48;100824.77;;;9.54;44.48
34658;BME280;20865;43.312;27.152;2023-01-29T05:16:31;100826.92;;;9.60;44.24
34658;BME280;20865;43.312;27.152;2023-01-29T05:19:00;100823.43;;;9.54;44.34
34658;BME280;20865;43.312;27.152;2023-01-29T05:21:28;100832.21;;;9.61;44.19
34658;BME280;20865;43.312;27.152;2023-01-29T05:24:20;100830.92;;;9.60;44.28
34658;BME280;20865;43.312;27.152;2023-01-29T05:26:45;100833.13;;;9.59;44.39
34658;BME280;20865;43.312;27.152;2023-01-29T05:29:31;100833.95;;;9.64;44.10
34658;BME280;20865;43.312;27.152;2023-01-29T05:31:59;100842.38;;;9.65;43.96
34658;BME280;20865;43.312;27.152;2023-01-29T05:34:26;100844.47;;;9.73;44.13
34658;BME280;20865;43.312;27.152;2023-01-29T05:36:54;100843.30;;;9.62;44.02
34658;BME280;20865;43.312;27.152;2023-01-29T05:39:22;100839.23;;;9.67;43.99
34658;BME280;20865;43.312;27.152;2023-01-29T05:41:49;100855.14;;;9.73;43.73
34658;BME280;20865;43.312;27.152;2023-01-29T05:44:17;100852.39;;;9.76;43.67
34658;BME280;20865;43.312;27.152;2023-01-29T05:46:45;100855.88;;;9.81;43.83
34658;BME280;20865;43.312;27.152;2023-01-29T05:49:13;100856.23;;;9.87;43.62
34658;BME280;20865;43.312;27.152;2023-01-29T05:51:42;100855.33;;;9.86;43.54
34658;BME280;20865;43.312;27.152;2023-01-29T05:54:11;100855.38;;;9.83;43.57
34658;BME280;20865;43.312;27.152;2023-01-29T05:56:39;100862.65;;;9.75;43.73
34658;BME280;20865;43.312;27.152;2023-01-29T05:59:07;100873.83;;;9.73;44.09
34658;BME280;20865;43.312;27.152;2023-01-29T06:01:34;100870.23;;;9.74;44.29
34658;BME280;20865;43.312;27.152;2023-01-29T06:04:02;100871.53;;;9.75;44.16
34658;BME280;20865;43.312;27.152;2023-01-29T06:06:30;100883.48;;;9.80;44.24
34658;BME280;20865;43.312;27.152;2023-01-29T06:08:57;100877.13;;;9.87;44.30
34658;BME280;20865;43.312;27.152;2023-01-29T06:11:25;100886.47;;;9.87;44.46
34658;BME280;20865;43.312;27.152;2023-01-29T06:13:52;100894.47;;;9.87;44.36
34658;BME280;20865;43.312;27.152;2023-01-29T06:16:20;100895.66;;;9.95;44.25
34658;BME280;20865;43.312;27.152;2023-01-29T06:18:48;100899.72;;;9.92;44.03
34658;BME280;20865;43.312;27.152;2023-01-29T06:21:15;100905.02;;;9.93;44.13
34658;BME280;20865;43.312;27.152;2023-01-29T06:23:43;100900.12;;;9.94;43.88
34658;BME280;20865;43.312;27.152;2023-01-29T06:26:13;100901.84;;;9.73;44.21
34658;BME280;20865;43.312;27.152;2023-01-29T06:28:41;100900.42;;;9.76;44.48
34658;BME280;20865;43.312;27.152;2023-01-29T06:31:10;100903.91;;;9.81;44.58
34658;BME280;20865;43.312;27.152;2023-01-29T06:33:38;100908.70;;;9.86;44.56
34658;BME280;20865;43.312;27.152;2023-01-29T06:36:06;100914.86;;;9.90;44.67
34658;BME280;20865;43.312;27.152;2023-01-29T06:38:34;100919.42;;;9.83;44.71
34658;BME280;20865;43.312;27.152;2023-01-29T06:41:09;100917.63;;;9.85;44.81
34658;BME280;20865;43.312;27.152;2023-01-29T06:43:38;100920.98;;;9.71;44.66
34658;BME280;20865;43.312;27.152;2023-01-29T06:46:07;100924.30;;;9.58;44.72
34658;BME280;20865;43.312;27.152;2023-01-29T06:48:35;100919.23;;;9.70;44.57
34658;BME280;20865;43.312;27.152;2023-01-29T06:51:03;100917.08;;;9.65;44.66
34658;BME280;20865;43.312;27.152;2023-01-29T06:53:33;100925.44;;;9.70;44.63
34658;BME280;20865;43.312;27.152;2023-01-29T06:56:01;100928.98;;;9.71;44.44
34658;BME280;20865;43.312;27.152;2023-01-29T06:58:28;100927.66;;;9.71;44.69
34658;BME280;20865;43.312;27.152;2023-01-29T07:01:07;100928.11;;;9.70;44.83
34658;BME280;20865;43.312;27.152;2023-01-29T07:03:35;100933.03;;;9.69;44.25
34658;BME280;20865;43.312;27.152;2023-01-29T07:06:04;100937.95;;;9.67;44.53
34658;BME280;20865;43.312;27.152;2023-01-29T07:08:37;100929.95;;;9.67;44.49
34658;BME280;20865;43.312;27.152;2023-01-29T07:11:05;100940.25;;;9.63;44.49
34658;BME280;20865;43.312;27.152;2023-01-29T07:13:33;100933.41;;;9.15;45.45
34658;BME280;20865;43.312;27.152;2023-01-29T07:16:03;100938.55;;;9.28;45.21
34658;BME280;20865;43.312;27.152;2023-01-29T07:18:30;100939.68;;;9.41;45.37
34658;BME280;20865;43.312;27.152;2023-01-29T07:20:58;100940.12;;;9.12;45.88
34658;BME280;20865;43.312;27.152;2023-01-29T07:23:27;100937.92;;;9.40;45.70
34658;BME280;20865;43.312;27.152;2023-01-29T07:25:55;100948.02;;;9.48;45.41
34658;BME280;20865;43.312;27.152;2023-01-29T07:28:24;100948.84;;;9.51;45.37
34658;BME280;20865;43.312;27.152;2023-01-29T07:30:57;100946.22;;;9.50;45.43
34658;BME280;20865;43.312;27.152;2023-01-29T07:33:25;100954.18;;;9.51;45.40
34658;BME280;20865;43.312;27.152;2023-01-29T07:35:52;100957.52;;;9.37;45.41
34658;BME280;20865;43.312;27.152;2023-01-29T07:38:20;100962.34;;;9.42;45.48
34658;BME280;20865;43.312;27.152;2023-01-29T07:40:48;100967.64;;;9.45;45.51
34658;BME280;20865;43.312;27.152;2023-01-29T07:43:15;100967.89;;;9.57;45.61
34658;BME280;20865;43.312;27.152;2023-01-29T07:45:43;100974.85;;;9.67;45.57
34658;BME280;20865;43.312;27.152;2023-01-29T07:48:11;100974.48;;;9.62;45.62
34658;BME280;20865;43.312;27.152;2023-01-29T07:50:39;100973.89;;;9.71;45.55
34658;BME280;20865;43.312;27.152;2023-01-29T07:53:15;100980.05;;;9.76;45.42
34658;BME280;20865;43.312;27.152;2023-01-29T07:55:44;100983.15;;;9.76;45.08
34658;BME280;20865;43.312;27.152;2023-01-29T07:58:11;100980.42;;;9.81;45.31
34658;BME280;20865;43.312;27.152;2023-01-29T08:00:39;100982.64;;;9.81;45.43
34658;BME280;20865;43.312;27.152;2023-01-29T08:03:10;100984.30;;;9.88;45.35
34658;BME280;20865;43.312;27.152;2023-01-29T08:05:37;100978.41;;;9.95;45.25
34658;BME280;20865;43.312;27.152;2023-01-29T08:08:05;100978.82;;;9.97;45.29
34658;BME280;20865;43.312;27.152;2023-01-29T08:10:38;100978.36;;;9.98;45.25
34658;BME280;20865;43.312;27.152;2023-01-29T08:13:02;100986.79;;;9.99;45.33
34658;BME280;20865;43.312;27.152;2023-01-29T08:15:30;100987.70;;;9.98;45.44
34658;BME280;20865;43.312;27.152;2023-01-29T08:18:00;100991.53;;;10.07;45.37
34658;BME280;20865;43.312;27.152;2023-01-29T08:20:28;100995.20;;;10.01;45.53
34658;BME280;20865;43.312;27.152;2023-01-29T08:23:06;100993.37;;;10.03;45.45
34658;BME280;20865;43.312;27.152;2023-01-29T08:25:30;100987.98;;;10.07;45.39
34658;BME280;20865;43.312;27.152;2023-01-29T08:27:59;101001.65;;;10.15;45.35
34658;BME280;20865;43.312;27.152;2023-01-29T08:30:29;101000.69;;;10.18;45.32
34658;BME280;20865;43.312;27.152;2023-01-29T08:32:57;101001.38;;;10.03;45.77
34658;BME280;20865;43.312;27.152;2023-01-29T08:35:25;100998.93;;;10.18;45.46
34658;BME280;20865;43.312;27.152;2023-01-29T08:37:54;101001.05;;;10.23;45.22
34658;BME280;20865;43.312;27.152;2023-01-29T08:40:23;101003.31;;;10.21;45.28
34658;BME280;20865;43.312;27.152;2023-01-29T08:42:51;101010.48;;;10.19;45.42
34658;BME280;20865;43.312;27.152;2023-01-29T08:45:18;101009.11;;;10.20;45.48
34658;BME280;20865;43.312;27.152;2023-01-29T08:47:47;101006.95;;;10.17;45.68
34658;BME280;20865;43.312;27.152;2023-01-29T08:50:17;101009.10;;;10.22;45.68
34658;BME280;20865;43.312;27.152;2023-01-29T08:52:45;101007.83;;;10.17;46.01
34658;BME280;20865;43.312;27.152;2023-01-29T08:55:13;101007.30;;;10.25;46.03
34658;BME280;20865;43.312;27.152;2023-01-29T08:57:40;101007.20;;;10.30;45.92
34658;BME280;20865;43.312;27.152;2023-01-29T09:00:09;101004.06;;;10.32;45.77
34658;BME280;20865;43.312;27.152;2023-01-29T09:02:37;101010.23;;;10.34;45.89
34658;BME280;20865;43.312;27.152;2023-01-29T09:05:08;101000.48;;;10.32;46.07
34658;BME280;20865;43.312;27.152;2023-01-29T09:07:36;101002.59;;;10.38;46.00
34658;BME280;20865;43.312;27.152;2023-01-29T09:10:03;101001.39;;;10.32;46.29
34658;BME280;20865;43.312;27.152;2023-01-29T09:12:31;101003.56;;;10.34;46.36
34658;BME280;20865;43.312;27.152;2023-01-29T09:14:59;101005.30;;;10.37;46.38
34658;BME280;20865;43.312;27.152;2023-01-29T09:17:26;100998.07;;;10.42;46.35
34658;BME280;20865;43.312;27.152;2023-01-29T09:19:54;101007.42;;;10.42;46.13
34658;BME280;20865;43.312;27.152;2023-01-29T09:22:21;101000.38;;;10.39;44.99
34658;BME280;20865;43.312;27.152;2023-01-29T09:24:49;101003.09;;;10.36;44.83
34658;BME280;20865;43.312;27.152;2023-01-29T09:27:17;100994.79;;;10.24;44.34
34658;BME280;20865;43.312;27.152;2023-01-29T09:29:44;100991.22;;;10.29;44.30
34658;BME280;20865;43.312;27.152;2023-01-29T09:32:12;100994.47;;;9.92;44.64
34658;BME280;20865;43.312;27.152;2023-01-29T09:34:40;100995.53;;;10.09;44.50
34658;BME280;20865;43.312;27.152;2023-01-29T09:37:07;100995.77;;;9.93;44.66
34658;BME280;20865;43.312;27.152;2023-01-29T09:39:35;100981.63;;;10.14;44.62
34658;BME280;20865;43.312;27.152;2023-01-29T09:42:07;100985.59;;;10.17;43.92
34658;BME280;20865;43.312;27.152;2023-01-29T09:47:24;100970.69;;;10.31;43.80
34658;BME280;20865;43.312;27.152;2023-01-29T09:52:42;100965.86;;;10.51;43.54
34658;BME280;20865;43.312;27.152;2023-01-29T09:55:16;100963.13;;;10.54;43.26
34658;BME280;20865;43.312;27.152;2023-01-29T09:57:49;100959.95;;;10.56;43.17
34658;BME280;20865;43.312;27.152;2023-01-29T10:00:33;100963.02;;;10.60;43.10
34658;BME280;20865;43.312;27.152;2023-01-29T10:03:12;100966.05;;;10.64;42.92
34658;BME280;20865;43.312;27.152;2023-01-29T10:08:30;100956.27;;;10.14;42.17
34658;BME280;20865;43.312;27.152;2023-01-29T10:14:17;100952.29;;;10.39;41.85
34658;BME280;20865;43.312;27.152;2023-01-29T10:20:15;100956.36;;;10.09;42.06
34658;BME280;20865;43.312;27.152;2023-01-29T10:25:26;100949.22;;;10.10;42.19
34658;BME280;20865;43.312;27.152;2023-01-29T10:27:57;100952.16;;;10.20;42.68
34658;BME280;20865;43.312;27.152;2023-01-29T10:30:37;100946.41;;;10.17;43.02
34658;BME280;20865;43.312;27.152;2023-01-29T10:33:15;100937.36;;;10.28;42.81
34658;BME280;20865;43.312;27.152;2023-01-29T10:35:43;100939.41;;;10.37;42.72
34658;BME280;20865;43.312;27.152;2023-01-29T10:41:01;100945.84;;;10.24;43.63
34658;BME280;20865;43.312;27.152;2023-01-29T10:49:11;100935.02;;;10.57;42.91
34658;BME280;20865;43.312;27.152;2023-01-29T10:59:59;100930.69;;;10.72;43.00
34658;BME280;20865;43.312;27.152;2023-01-29T11:02:24;100922.66;;;10.74;42.81
34658;BME280;20865;43.312;27.152;2023-01-29T11:04:52;100924.00;;;10.72;43.08
34658;BME280;20865;43.312;27.152;2023-01-29T11:07:21;100918.53;;;10.79;43.12
34658;BME280;20865;43.312;27.152;2023-01-29T11:09:58;100926.86;;;10.84;43.01
34658;BME280;20865;43.312;27.152;2023-01-29T11:12:32;100924.30;;;10.80;43.05
34658;BME280;20865;43.312;27.152;2023-01-29T11:15:33;100926.80;;;10.87;42.92
34658;BME280;20865;43.312;27.152;2023-01-29T11:17:35;100916.39;;;10.94;42.58
34658;BME280;20865;43.312;27.152;2023-01-29T11:20:05;100914.70;;;10.92;42.14
34658;BME280;20865;43.312;27.152;2023-01-29T11:22:32;100912.33;;;10.97;41.88
34658;BME280;20865;43.312;27.152;2023-01-29T11:25:20;100915.00;;;10.97;41.84
34658;BME280;20865;43.312;27.152;2023-01-29T11:27:57;100901.05;;;10.83;41.43
34658;BME280;20865;43.312;27.152;2023-01-29T11:30:29;100905.41;;;10.87;41.36
34658;BME280;20865;43.312;27.152;2023-01-29T11:35:34;100904.87;;;10.92;41.18
34658;BME280;20865;43.312;27.152;2023-01-29T11:38:24;100897.86;;;10.87;41.16
34658;BME280;20865;43.312;27.152;2023-01-29T11:41:03;100901.67;;;10.96;41.12
34658;BME280;20865;43.312;27.152;2023-01-29T11:43:29;100897.25;;;10.95;40.97
34658;BME280;20865;43.312;27.152;2023-01-29T11:46:05;100892.34;;;10.94;41.58
34658;BME280;20865;43.312;27.152;2023-01-29T11:48:49;100899.12;;;10.91;41.25
34658;BME280;20865;43.312;27.152;2023-01-29T11:51:26;100904.83;;;10.94;41.04
34658;BME280;20865;43.312;27.152;2023-01-29T11:53:57;100896.28;;;10.78;41.19
34658;BME280;20865;43.312;27.152;2023-01-29T11:56:39;100892.09;;;10.86;41.01
34658;BME280;20865;43.312;27.152;2023-01-29T11:59:23;100898.66;;;10.92;41.08
34658;BME280;20865;43.312;27.152;2023-01-29T12:01:47;100891.58;;;10.89;41.43
34658;BME280;20865;43.312;27.152;2023-01-29T12:04:24;100892.50;;;10.88;41.62
34658;BME280;20865;43.312;27.152;2023-01-29T12:06:52;100882.64;;;10.69;41.74
34658;BME280;20865;43.312;27.152;2023-01-29T12:09:22;100889.53;;;10.81;41.70
34658;BME280;20865;43.312;27.152;2023-01-29T12:11:52;100894.30;;;10.88;42.01
34658;BME280;20865;43.312;27.152;2023-01-29T12:14:28;100889.66;;;10.94;41.67
34658;BME280;20865;43.312;27.152;2023-01-29T12:17:05;100889.25;;;10.93;41.23
34658;BME280;20865;43.312;27.152;2023-01-29T12:19:43;100890.28;;;10.88;41.19
34658;BME280;20865;43.312;27.152;2023-01-29T12:22:22;100884.02;;;10.68;40.48
34658;BME280;20865;43.312;27.152;2023-01-29T12:27:45;100896.75;;;10.76;40.99
34658;BME280;20865;43.312;27.152;2023-01-29T12:30:17;100894.48;;;10.79;41.09
34658;BME280;20865;43.312;27.152;2023-01-29T12:35:22;100901.33;;;10.71;40.61
34658;BME280;20865;43.312;27.152;2023-01-29T12:38:16;100905.80;;;10.70;40.76
34658;BME280;20865;43.312;27.152;2023-01-29T12:43:22;100909.11;;;10.61;40.32
34658;BME280;20865;43.312;27.152;2023-01-29T12:45:53;100903.94;;;10.53;40.37
34658;BME280;20865;43.312;27.152;2023-01-29T12:48:30;100904.06;;;10.45;40.36
34658;BME280;20865;43.312;27.152;2023-01-29T12:53:45;100910.73;;;10.47;40.78
34658;BME280;20865;43.312;27.152;2023-01-29T12:56:10;100910.73;;;10.45;40.92
34658;BME280;20865;43.312;27.152;2023-01-29T12:58:43;100913.52;;;10.41;40.66
34658;BME280;20865;43.312;27.152;2023-01-29T13:01:26;100921.68;;;10.33;40.80
34658;BME280;20865;43.312;27.152;2023-01-29T13:06:36;100918.98;;;10.09;41.46
34658;BME280;20865;43.312;27.152;2023-01-29T13:09:14;100912.88;;;10.25;41.10
34658;BME280;20865;43.312;27.152;2023-01-29T13:11:55;100914.31;;;10.20;41.30
34658;BME280;20865;43.312;27.152;2023-01-29T13:14:30;100917.31;;;10.29;41.17
34658;BME280;20865;43.312;27.152;2023-01-29T13:17:00;100924.67;;;10.15;41.64
34658;BME280;20865;43.312;27.152;2023-01-29T13:19:27;100924.46;;;10.27;41.84
34658;BME280;20865;43.312;27.152;2023-01-29T13:21:58;100916.52;;;10.21;41.55
34658;BME280;20865;43.312;27.152;2023-01-29T13:24:31;100924.36;;;10.08;41.79
34658;BME280;20865;43.312;27.152;2023-01-29T13:26:56;100929.61;;;10.12;41.76
34658;BME280;20865;43.312;27.152;2023-01-29T13:29:26;100925.38;;;10.26;41.49
34658;BME280;20865;43.312;27.152;2023-01-29T13:32:02;100933.61;;;10.12;41.20
34658;BME280;20865;43.312;27.152;2023-01-29T13:34:32;100917.33;;;10.28;41.03
34658;BME280;20865;43.312;27.152;2023-01-29T13:37:03;100929.39;;;10.26;41.14
34658;BME280;20865;43.312;27.152;2023-01-29T13:39:33;100923.20;;;10.21;40.89
34658;BME280;20865;43.312;27.152;2023-01-29T13:42:13;100925.34;;;10.28;41.13
34658;BME280;20865;43.312;27.152;2023-01-29T13:44:36;100933.10;;;10.16;40.81
34658;BME280;20865;43.312;27.152;2023-01-29T13:47:09;100935.41;;;10.12;39.84
34658;BME280;20865;43.312;27.152;2023-01-29T13:49:36;100927.13;;;10.01;39.99
34658;BME280;20865;43.312;27.152;2023-01-29T13:54:57;100930.78;;;9.96;40.57
34658;BME280;20865;43.312;27.152;2023-01-29T14:10:43;100945.13;;;9.90;40.45
34658;BME280;20865;43.312;27.152;2023-01-29T14:18:34;100950.86;;;10.18;40.31
34658;BME280;20865;43.312;27.152;2023-01-29T14:21:01;100949.53;;;10.18;40.12
34658;BME280;20865;43.312;27.152;2023-01-29T14:23:43;100948.25;;;10.15;40.24
34658;BME280;20865;43.312;27.152;2023-01-29T14:31:58;100948.25;;;10.14;39.90
34658;BME280;20865;43.312;27.152;2023-01-29T14:37:14;100940.66;;;10.16;40.25
34658;BME280;20865;43.312;27.152;2023-01-29T14:39:45;100946.77;;;10.23;39.95
34658;BME280;20865;43.312;27.152;2023-01-29T14:42:34;100944.92;;;10.25;39.92
34658;BME280;20865;43.312;27.152;2023-01-29T14:45:27;100948.94;;;10.25;39.98
34658;BME280;20865;43.312;27.152;2023-01-29T14:50:46;100950.25;;;10.28;40.37
34658;BME280;20865;43.312;27.152;2023-01-29T14:56:16;100951.48;;;10.34;40.02
34658;BME280;20865;43.312;27.152;2023-01-29T14:58:38;100946.50;;;10.38;39.94
34658;BME280;20865;43.312;27.152;2023-01-29T15:01:30;100950.05;;;10.39;40.33
34658;BME280;20865;43.312;27.152;2023-01-29T15:06:31;100951.77;;;10.43;40.08
34658;BME280;20865;43.312;27.152;2023-01-29T15:09:03;100952.20;;;10.42;39.68
34658;BME280;20865;43.312;27.152;2023-01-29T15:11:33;100954.88;;;10.42;39.46
34658;BME280;20865;43.312;27.152;2023-01-29T15:14:07;100953.53;;;10.44;39.83